Time;durP1;ratioP1;P1;durP2;ratioP2;P2;SDS_P1;SDS_P2;PMS_P1;PMS_P2;Temp;Humidity;BMP_temperature;BMP_pressure;BME280_temperature;BME280_humidity;BME280_pressure;Samples;Min_cycle;Max_cycle;Signal;HPM_P1;HPM_P2
2023/01/14 00:00:52;;;;;;;17.20;3.67;;;8.30;99.90;;;;;;5094597;27;20091;-86
2023/01/14 00:03:17;;;;;;;14.82;4.10;;;8.30;99.90;;;;;;5106067;28;20122;-86
2023/01/14 00:05:43;;;;;;;15.82;3.85;;;8.30;99.90;;;;;;5092912;28;20047;-88
2023/01/14 00:08:09;;;;;;;17.15;3.95;;;8.20;99.90;;;;;;5111532;27;20047;-87
2023/01/14 00:10:37;;;;;;;16.98;4.15;;;8.20;99.90;;;;;;5093608;28;20048;-87
2023/01/14 00:13:02;;;;;;;16.60;4.45;;;8.20;99.90;;;;;;5096378;27;20039;-87
2023/01/14 00:15:28;;;;;;;14.63;3.83;;;8.10;99.90;;;;;;5147644;27;20053;-87
2023/01/14 00:17:54;;;;;;;17.20;3.60;;;8.10;99.90;;;;;;5112394;27;20043;-87
2023/01/14 00:20:19;;;;;;;13.32;3.53;;;8.10;99.90;;;;;;5128570;27;20039;-86
2023/01/14 00:22:45;;;;;;;19.27;4.35;;;8.00;99.90;;;;;;5113420;27;20062;-87
2023/01/14 00:25:11;;;;;;;11.88;3.45;;;8.00;99.90;;;;;;5112917;27;20479;-87
2023/01/14 00:27:36;;;;;;;18.88;3.80;;;8.00;99.90;;;;;;5128445;27;20123;-86
2023/01/14 00:30:02;;;;;;;16.42;4.00;;;8.10;99.90;;;;;;5092871;28;20043;-87
2023/01/14 00:32:28;;;;;;;13.20;3.67;;;8.10;99.90;;;;;;5110519;28;20036;-86
2023/01/14 00:34:53;;;;;;;15.85;4.15;;;8.10;99.90;;;;;;5092424;28;20464;-87
2023/01/14 00:37:19;;;;;;;15.93;4.07;;;8.00;99.90;;;;;;5092732;28;20073;-87
2023/01/14 00:39:45;;;;;;;18.48;4.03;;;8.00;99.90;;;;;;5092605;28;20506;-86
2023/01/14 00:42:10;;;;;;;14.70;4.00;;;8.00;99.90;;;;;;5090950;27;20049;-86
2023/01/14 00:44:36;;;;;;;14.90;3.75;;;7.90;99.90;;;;;;5113167;27;20039;-86
2023/01/14 00:47:02;;;;;;;15.45;4.28;;;7.90;99.90;;;;;;5108671;27;20114;-88
2023/01/14 00:49:27;;;;;;;18.33;4.13;;;7.90;99.90;;;;;;5112659;27;20096;-86
2023/01/14 00:51:53;;;;;;;16.50;4.10;;;8.00;99.90;;;;;;5113059;27;20501;-86
2023/01/14 00:54:19;;;;;;;15.10;3.38;;;8.00;99.90;;;;;;5113143;28;20035;-87
2023/01/14 00:56:46;;;;;;;15.02;3.40;;;8.00;99.90;;;;;;5114362;28;20096;-86
2023/01/14 00:59:23;;;;;;;14.25;3.40;;;8.10;99.90;;;;;;5110575;28;20071;-87
2023/01/14 01:01:51;;;;;;;14.18;3.47;;;8.10;99.90;;;;;;5091472;28;20088;-87
2023/01/14 01:04:17;;;;;;;16.60;3.70;;;8.10;99.90;;;;;;5092586;28;20039;-86
2023/01/14 01:06:43;;;;;;;13.70;3.78;;;8.10;99.90;;;;;;5098771;28;20054;-86
2023/01/14 01:09:09;;;;;;;14.70;3.58;;;8.10;99.90;;;;;;5079746;28;20097;-86
2023/01/14 01:11:35;;;;;;;13.48;4.18;;;8.10;99.90;;;;;;5129180;27;20556;-86
2023/01/14 01:14:00;;;;;;;14.18;3.78;;;8.20;99.90;;;;;;5115872;27;20069;-86
2023/01/14 01:16:27;;;;;;;13.93;3.53;;;8.10;99.90;;;;;;5134178;27;20082;-87
2023/01/14 01:18:54;;;;;;;14.57;3.63;;;8.10;99.90;;;;;;5116658;27;20043;-86
2023/01/14 01:21:21;;;;;;;12.43;2.97;;;8.00;99.90;;;;;;5150980;27;20043;-86
2023/01/14 01:23:48;;;;;;;16.25;3.55;;;8.00;99.90;;;;;;5099191;27;20047;-87
2023/01/14 01:26:20;;;;;;;13.02;3.50;;;7.90;99.90;;;;;;5133661;27;20043;-86
2023/01/14 01:28:51;;;;;;;14.30;4.22;;;7.90;99.90;;;;;;5148075;27;20036;-87
2023/01/14 01:31:17;;;;;;;15.98;3.90;;;7.80;99.90;;;;;;5134519;27;20034;-86
2023/01/14 01:33:43;;;;;;;12.88;3.20;;;7.80;99.90;;;;;;5151173;27;20487;-85
2023/01/14 01:36:15;;;;;;;15.25;4.07;;;7.80;99.90;;;;;;5116464;27;20053;-87
2023/01/14 01:38:42;;;;;;;11.85;3.25;;;7.80;99.90;;;;;;5116659;27;20058;-86
2023/01/14 01:41:14;;;;;;;15.55;3.88;;;7.90;99.90;;;;;;5085625;28;20044;-86
2023/01/14 01:44:07;;;;;;;17.88;4.35;;;7.80;99.90;;;;;;5095921;28;20512;-86
2023/01/14 01:46:34;;;;;;;14.75;3.85;;;7.90;99.90;;;;;;5094942;28;20054;-86
2023/01/14 01:49:15;;;;;;;16.38;3.67;;;7.80;99.90;;;;;;5095428;28;20071;-86
2023/01/14 01:51:50;;;;;;;21.27;5.03;;;7.80;99.90;;;;;;5114420;28;20049;-86
2023/01/14 01:54:20;;;;;;;15.55;3.97;;;7.80;99.90;;;;;;5114338;28;20191;-86
2023/01/14 01:56:46;;;;;;;14.40;3.88;;;7.80;99.90;;;;;;5149979;27;20448;-86
2023/01/14 01:59:15;;;;;;;16.13;4.72;;;7.90;99.90;;;;;;5115811;27;20122;-86
2023/01/14 02:01:42;;;;;;;18.42;4.22;;;7.90;99.90;;;;;;5115352;27;20463;-87
2023/01/14 02:04:10;;;;;;;16.15;4.78;;;7.90;99.90;;;;;;5115707;27;20435;-86
2023/01/14 02:06:36;;;;;;;15.43;4.00;;;7.90;99.90;;;;;;5133968;27;20031;-86
2023/01/14 02:09:03;;;;;;;19.05;4.97;;;7.90;99.90;;;;;;5115626;27;20043;-86
2023/01/14 02:11:47;;;;;;;16.67;3.97;;;7.90;99.90;;;;;;5107316;27;20046;-86
2023/01/14 02:14:37;;;;;;;18.20;4.22;;;8.00;99.90;;;;;;5114859;27;20043;-86
2023/01/14 02:17:18;;;;;;;16.42;3.95;;;8.00;99.90;;;;;;5115478;27;20331;-87
2023/01/14 02:19:56;;;;;;;16.20;4.30;;;8.00;99.90;;;;;;5115599;27;20525;-86
2023/01/14 02:23:02;;;;;;;18.88;4.40;;;8.00;99.90;;;;;;5113555;27;20050;-86
2023/01/14 02:25:42;;;;;;;17.25;4.60;;;8.00;99.90;;;;;;5114140;27;20085;-87
2023/01/14 02:28:55;;;;;;;16.00;4.07;;;8.00;99.90;;;;;;5114363;27;20042;-87
2023/01/14 02:31:28;;;;;;;16.70;4.30;;;8.00;99.90;;;;;;5097434;27;20043;-86
2023/01/14 02:34:05;;;;;;;12.82;3.95;;;8.10;99.90;;;;;;5078402;28;20048;-86
2023/01/14 02:37:00;;;;;;;15.05;4.57;;;8.10;99.90;;;;;;5087440;28;20552;-87
2023/01/14 02:40:02;;;;;;;19.10;4.53;;;8.10;99.90;;;;;;5130848;27;20108;-86
2023/01/14 02:45:46;;;;;;;15.15;3.90;;;8.00;99.90;;;;;;5114011;27;20272;-86
2023/01/14 02:48:14;;;;;;;17.25;4.68;;;7.90;99.90;;;;;;5132221;27;20063;-87
2023/01/14 02:50:41;;;;;;;18.30;4.50;;;7.90;99.90;;;;;;5113950;27;20595;-86
2023/01/14 02:53:08;;;;;;;18.50;4.30;;;7.90;99.90;;;;;;5129635;27;20118;-87
2023/01/14 02:55:36;;;;;;;18.45;4.53;;;7.80;99.90;;;;;;5094703;28;20047;-87
2023/01/14 02:58:24;;;;;;;17.20;4.07;;;7.80;99.90;;;;;;5094354;28;20136;-87
2023/01/14 03:01:14;;;;;;;19.20;4.40;;;7.80;99.90;;;;;;5112840;28;20043;-87
2023/01/14 03:04:01;;;;;;;13.13;3.83;;;7.70;99.90;;;;;;5094662;28;20040;-87
2023/01/14 03:06:57;;;;;;;16.90;4.60;;;7.70;99.90;;;;;;5102344;27;20035;-87
2023/01/14 03:09:44;;;;;;;21.00;4.70;;;7.70;99.90;;;;;;5128311;27;20122;-87
2023/01/14 03:12:25;;;;;;;15.80;3.63;;;7.60;99.90;;;;;;5094223;28;20369;-88
2023/01/14 03:14:57;;;;;;;18.02;4.53;;;7.60;99.90;;;;;;5094541;28;20076;-87
2023/01/14 03:17:34;;;;;;;16.95;4.20;;;7.50;99.90;;;;;;5111695;28;20043;-87
2023/01/14 03:20:06;;;;;;;15.27;4.07;;;7.40;99.90;;;;;;5117097;27;20031;-87
2023/01/14 03:22:34;;;;;;;13.52;2.10;;;7.30;99.90;;;;;;5119761;27;20031;-87
2023/01/14 03:25:02;;;;;;;19.00;5.03;;;7.20;99.90;;;;;;5097754;27;20054;-87
2023/01/14 03:27:33;;;;;;;16.35;4.20;;;7.20;99.90;;;;;;5114756;27;20047;-88
2023/01/14 03:30:04;;;;;;;17.15;4.53;;;7.00;99.90;;;;;;5148644;27;20039;-88
2023/01/14 03:32:39;;;;;;;12.30;2.97;;;6.90;99.90;;;;;;5147707;27;20122;-87
2023/01/14 03:35:11;;;;;;;34.45;3.95;;;6.80;99.90;;;;;;5095597;27;20070;-87
2023/01/14 03:37:41;;;;;;;18.63;4.57;;;6.80;99.90;;;;;;5133764;27;20042;-87
2023/01/14 03:40:11;;;;;;;17.90;2.00;;;6.80;99.90;;;;;;5105144;27;20092;-87
2023/01/14 03:42:43;;;;;;;15.93;1.57;;;6.70;99.90;;;;;;5093880;28;20043;-87
2023/01/14 03:45:25;;;;;;;14.32;3.78;;;6.60;99.90;;;;;;5091527;27;20035;-87
2023/01/14 03:47:51;;;;;;;17.73;4.05;;;6.60;99.90;;;;;;5108820;28;20118;-87
2023/01/14 03:50:19;;;;;;;15.27;3.92;;;6.60;99.90;;;;;;5128840;27;20487;-87
2023/01/14 03:53:18;;;;;;;15.32;4.10;;;6.60;99.90;;;;;;5094928;28;20043;-87
2023/01/14 03:56:00;;;;;;;16.95;3.97;;;6.60;99.90;;;;;;5128612;27;20039;-87
2023/01/14 03:58:25;;;;;;;11.52;2.05;;;6.60;99.90;;;;;;5095194;28;20043;-87
2023/01/14 04:01:05;;;;;;;15.38;3.78;;;6.60;99.90;;;;;;5094050;28;20085;-87
2023/01/14 04:03:31;;;;;;;18.40;4.53;;;6.60;99.90;;;;;;5096523;28;20044;-87
2023/01/14 04:05:57;;;;;;;7.60;2.47;;;6.60;99.90;;;;;;5076459;28;20031;-87
2023/01/14 04:08:24;;;;;;;17.55;4.25;;;6.60;99.90;;;;;;5093874;28;20087;-87
2023/01/14 04:10:50;;;;;;;16.80;4.25;;;6.60;99.90;;;;;;5110912;28;20078;-87
2023/01/14 04:16:02;;;;;;;11.57;2.30;;;6.50;99.90;;;;;;5129897;27;20039;-87
2023/01/14 04:18:27;;;;;;;18.02;4.35;;;6.60;99.90;;;;;;5111937;27;20035;-87
2023/01/14 04:20:53;;;;;;;11.38;2.83;;;6.60;99.90;;;;;;5094144;28;20482;-88
2023/01/14 04:23:19;;;;;;;11.80;2.17;;;6.50;99.90;;;;;;5095758;28;20453;-88
2023/01/14 04:25:44;;;;;;;17.65;4.47;;;6.50;99.90;;;;;;5103559;27;20043;-88
2023/01/14 04:28:10;;;;;;;15.60;3.90;;;6.50;99.90;;;;;;5114149;27;20039;-87
2023/01/14 04:30:36;;;;;;;18.67;4.18;;;6.50;99.90;;;;;;5113913;27;20168;-87
2023/01/14 04:33:02;;;;;;;14.90;3.80;;;6.40;99.90;;;;;;5129854;27;20390;-87
2023/01/14 04:35:27;;;;;;;17.38;3.90;;;6.40;99.90;;;;;;5113699;27;20043;-87
2023/01/14 04:37:54;;;;;;;17.25;3.45;;;6.40;99.90;;;;;;5130699;27;20387;-88
2023/01/14 04:40:21;;;;;;;13.07;2.95;;;6.40;99.90;;;;;;5113363;27;20411;-87
2023/01/14 04:42:47;;;;;;;18.27;3.97;;;6.30;99.90;;;;;;5129459;27;20024;-87
2023/01/14 04:45:13;;;;;;;17.63;4.63;;;6.30;99.90;;;;;;5112838;27;20513;-87
2023/01/14 04:47:39;;;;;;;12.27;3.10;;;6.30;99.90;;;;;;5123860;27;20038;-88
2023/01/14 04:52:54;;;;;;;16.88;4.72;;;6.30;99.90;;;;;;5111580;28;20446;-88
2023/01/14 04:55:19;;;;;;;20.25;4.65;;;6.30;99.90;;;;;;5110766;28;20039;-87
2023/01/14 04:57:45;;;;;;;18.00;5.30;;;6.30;99.90;;;;;;5092902;28;20160;-88
2023/01/14 05:00:11;;;;;;;19.70;2.97;;;6.30;99.90;;;;;;5092887;28;20050;-87
2023/01/14 05:02:37;;;;;;;19.42;5.20;;;6.30;99.90;;;;;;5120900;28;20391;-87
2023/01/14 05:05:03;;;;;;;16.05;5.03;;;6.20;99.90;;;;;;5131475;28;20060;-87
2023/01/14 05:07:29;;;;;;;17.33;5.78;;;6.30;99.90;;;;;;5112844;28;20098;-87
2023/01/14 05:09:55;;;;;;;12.80;2.65;;;6.20;99.90;;;;;;5111637;28;20114;-87
2023/01/14 05:12:20;;;;;;;15.23;2.38;;;6.20;99.90;;;;;;5112824;28;20347;-88
2023/01/14 05:14:46;;;;;;;17.77;5.60;;;6.20;99.90;;;;;;5112086;28;20601;-87
2023/01/14 05:17:11;;;;;;;20.00;5.28;;;6.20;99.90;;;;;;5099678;28;20070;-87
2023/01/14 05:19:37;;;;;;;21.95;5.93;;;6.20;99.90;;;;;;5095929;28;20135;-88
2023/01/14 05:22:03;;;;;;;14.98;2.83;;;6.20;99.90;;;;;;5123112;28;20039;-88
2023/01/14 05:24:29;;;;;;;18.35;5.32;;;6.20;99.90;;;;;;5091830;28;20060;-87
2023/01/14 05:26:54;;;;;;;14.18;2.55;;;6.20;99.90;;;;;;5110502;28;20058;-87
2023/01/14 05:29:20;;;;;;;11.07;2.90;;;6.20;99.90;;;;;;5110842;28;20060;-87
2023/01/14 05:31:46;;;;;;;25.55;6.50;;;6.20;99.90;;;;;;5107748;28;20028;-87
2023/01/14 05:34:12;;;;;;;17.40;3.45;;;6.20;99.90;;;;;;5131079;28;20399;-87
2023/01/14 05:36:38;;;;;;;21.83;5.85;;;6.10;99.90;;;;;;5131506;28;20035;-87
2023/01/14 05:39:04;;;;;;;15.40;4.00;;;6.10;99.90;;;;;;5091871;28;20043;-87
2023/01/14 05:41:30;;;;;;;20.67;6.68;;;6.20;99.90;;;;;;5096892;28;20041;-88
2023/01/14 05:46:39;;;;;;;21.48;6.00;;;6.20;99.90;;;;;;5112795;28;20515;-88
2023/01/14 05:49:05;;;;;;;19.40;6.20;;;6.10;99.90;;;;;;5112924;28;20124;-88
2023/01/14 05:51:31;;;;;;;24.75;7.22;;;6.10;99.90;;;;;;5111298;28;20050;-88
2023/01/14 05:53:57;;;;;;;18.23;4.15;;;6.10;99.90;;;;;;5113933;27;20504;-87
2023/01/14 05:56:22;;;;;;;22.90;6.70;;;6.10;99.90;;;;;;5132691;27;20675;-88
2023/01/14 05:58:48;;;;;;;21.42;6.60;;;6.10;99.90;;;;;;5132780;27;20122;-88
2023/01/14 06:06:47;;;;;;;16.25;4.35;;;6.00;99.90;;;;;;5096783;28;20056;-87
2023/01/14 06:09:17;;;;;;;23.55;8.15;;;6.00;99.90;;;;;;5113651;28;20464;-87
2023/01/14 06:11:46;;;;;;;24.10;7.95;;;6.00;99.90;;;;;;5123754;27;20118;-87
2023/01/14 06:14:11;;;;;;;26.63;8.45;;;6.00;99.90;;;;;;5133870;27;20151;-87
2023/01/14 06:16:40;;;;;;;15.45;4.47;;;6.00;99.90;;;;;;5131694;27;20047;-87
2023/01/14 06:19:11;;;;;;;11.90;3.05;;;6.00;99.90;;;;;;5134735;27;20364;-88
2023/01/14 06:21:38;;;;;;;23.67;7.97;;;6.00;99.90;;;;;;5115852;27;20031;-87
2023/01/14 06:24:04;;;;;;;15.25;3.97;;;6.10;99.90;;;;;;5133975;27;20479;-88
2023/01/14 06:26:33;;;;;;;23.02;4.50;;;6.10;99.90;;;;;;5132119;27;20035;-87
2023/01/14 06:29:04;;;;;;;23.00;5.13;;;6.10;99.90;;;;;;5115720;27;20108;-88
2023/01/14 06:31:30;;;;;;;27.05;8.65;;;6.10;99.90;;;;;;5114403;27;20035;-88
2023/01/14 06:33:57;;;;;;;21.08;4.47;;;6.00;99.90;;;;;;5112808;27;20079;-86
2023/01/14 06:36:23;;;;;;;23.45;5.88;;;6.00;99.90;;;;;;5112825;27;20554;-87
2023/01/14 06:38:48;;;;;;;26.35;8.27;;;6.00;99.90;;;;;;5106810;27;20160;-87
2023/01/14 06:41:14;;;;;;;25.75;8.30;;;6.00;99.90;;;;;;5112991;27;20122;-89
2023/01/14 06:43:44;;;;;;;26.05;5.30;;;6.00;99.90;;;;;;5113770;27;20035;-87
2023/01/14 06:46:11;;;;;;;28.35;8.15;;;6.00;99.90;;;;;;5114248;27;20564;-86
2023/01/14 06:48:37;;;;;;;20.42;5.35;;;6.00;99.90;;;;;;5114502;27;20183;-87
2023/01/14 06:51:05;;;;;;;19.33;4.82;;;6.00;99.90;;;;;;5114657;27;20471;-86
2023/01/14 06:53:31;;;;;;;25.00;7.63;;;6.10;99.90;;;;;;5096260;27;20133;-87
2023/01/14 06:56:01;;;;;;;33.55;8.93;;;6.10;99.90;;;;;;5133559;27;20104;-88
2023/01/14 06:58:27;;;;;;;22.65;4.63;;;6.10;99.90;;;;;;5133169;27;20031;-86
2023/01/14 07:00:56;;;;;;;25.88;8.05;;;6.10;99.90;;;;;;5115280;27;20497;-88
2023/01/14 07:03:23;;;;;;;20.67;4.45;;;6.20;99.90;;;;;;5113477;27;20059;-85
2023/01/14 07:05:48;;;;;;;28.65;7.60;;;6.20;99.90;;;;;;5129612;27;20042;-88
2023/01/14 07:08:14;;;;;;;27.48;5.22;;;6.20;99.90;;;;;;5112654;27;20039;-88
2023/01/14 07:10:40;;;;;;;27.85;8.77;;;6.20;99.90;;;;;;5133460;27;20466;-86
2023/01/14 07:13:05;;;;;;;30.73;8.32;;;6.10;99.90;;;;;;5114810;27;20031;-89
2023/01/14 07:15:31;;;;;;;25.30;5.15;;;6.20;99.90;;;;;;5113910;27;20043;-86
2023/01/14 07:17:57;;;;;;;18.48;4.45;;;6.20;99.90;;;;;;5150579;27;20034;-87
2023/01/14 07:20:23;;;;;;;27.50;8.02;;;6.20;99.90;;;;;;5117297;27;20031;-88
2023/01/14 07:22:49;;;;;;;32.13;8.18;;;6.20;99.90;;;;;;5130419;27;20034;-89
2023/01/14 07:25:15;;;;;;;22.00;5.05;;;6.20;99.90;;;;;;5111099;27;20050;-88
2023/01/14 07:27:40;;;;;;;29.42;8.48;;;6.20;99.90;;;;;;5090285;28;20035;-87
2023/01/14 07:30:07;;;;;;;25.02;5.22;;;6.20;99.90;;;;;;5102170;27;20034;-87
2023/01/14 07:32:33;;;;;;;26.08;8.32;;;6.20;99.90;;;;;;5129118;27;20432;-87
2023/01/14 07:34:59;;;;;;;19.67;4.57;;;6.20;99.90;;;;;;5110074;27;20134;-86
2023/01/14 07:37:25;;;;;;;28.65;8.88;;;6.30;99.90;;;;;;5107980;27;20094;-89
2023/01/14 07:39:51;;;;;;;18.63;4.85;;;6.30;99.90;;;;;;5109271;27;20039;-87
2023/01/14 07:42:18;;;;;;;24.90;8.63;;;6.30;99.90;;;;;;5132452;27;20107;-84
2023/01/14 07:44:44;;;;;;;28.35;8.18;;;6.30;99.90;;;;;;5110356;27;20035;-86
2023/01/14 07:47:15;;;;;;;20.65;4.93;;;6.30;99.90;;;;;;5113957;27;20042;-87
2023/01/14 07:49:41;;;;;;;25.52;7.65;;;6.30;99.90;;;;;;5113971;27;20122;-87
2023/01/14 07:52:07;;;;;;;31.17;7.88;;;6.40;99.90;;;;;;5126383;27;20092;-88
2023/01/14 07:54:33;;;;;;;25.27;5.22;;;6.40;99.90;;;;;;5113650;27;20076;-89
2023/01/14 07:56:59;;;;;;;24.58;7.90;;;6.40;99.90;;;;;;5130811;27;20419;-89
2023/01/14 07:59:25;;;;;;;22.65;4.95;;;6.40;99.90;;;;;;5094540;27;20035;-88
2023/01/14 08:01:50;;;;;;;27.60;7.93;;;6.40;99.90;;;;;;5129543;27;20120;-89
2023/01/14 08:04:17;;;;;;;23.98;5.30;;;6.40;99.90;;;;;;5113295;27;20122;-88
2023/01/14 08:06:43;;;;;;;26.90;7.28;;;6.40;99.90;;;;;;5132444;27;20039;-89
2023/01/14 08:09:09;;;;;;;24.52;6.90;;;6.40;99.90;;;;;;5132153;27;20097;-88
2023/01/14 08:11:36;;;;;;;24.92;6.85;;;6.50;99.90;;;;;;5128701;27;20467;-88
2023/01/14 08:14:02;;;;;;;26.75;7.07;;;6.50;99.90;;;;;;5108432;27;20523;-84
2023/01/14 08:16:27;;;;;;;22.88;6.90;;;6.50;99.90;;;;;;5125968;27;20086;-92
2023/01/14 08:18:53;;;;;;;13.30;3.47;;;6.50;99.90;;;;;;5138188;27;20071;-95
2023/01/14 08:21:18;;;;;;;25.23;7.43;;;6.50;99.90;;;;;;5129925;27;20639;-87
2023/01/14 08:23:44;;;;;;;25.27;4.75;;;6.50;99.90;;;;;;5112279;27;20407;-87
2023/01/14 08:26:12;;;;;;;25.00;7.28;;;6.50;99.90;;;;;;5120444;27;20035;-88
2023/01/14 08:28:40;;;;;;;26.98;7.15;;;6.40;99.90;;;;;;5141665;27;20051;-85
2023/01/14 08:31:12;;;;;;;21.15;4.85;;;6.40;99.90;;;;;;5129958;27;20043;-86
2023/01/14 08:33:38;;;;;;;23.65;6.65;;;6.40;99.90;;;;;;5112908;27;20023;-88
2023/01/14 08:36:07;;;;;;;25.52;7.03;;;6.40;99.90;;;;;;5111649;27;20051;-87
2023/01/14 08:38:34;;;;;;;17.77;4.53;;;6.40;99.90;;;;;;5109939;27;20129;-87
2023/01/14 08:41:03;;;;;;;23.90;6.82;;;6.40;99.90;;;;;;5094907;27;20384;-86
2023/01/14 08:43:29;;;;;;;19.33;4.38;;;6.40;99.90;;;;;;5111918;27;20502;-89
2023/01/14 08:45:54;;;;;;;25.77;6.70;;;6.40;99.90;;;;;;5110753;27;20126;-90
2023/01/14 08:48:20;;;;;;;17.90;4.05;;;6.40;99.90;;;;;;5113379;27;20035;-88
2023/01/14 08:50:46;;;;;;;22.63;5.93;;;6.40;99.90;;;;;;5091933;28;20498;-89
2023/01/14 08:53:11;;;;;;;21.85;6.35;;;6.40;99.90;;;;;;5112984;28;20263;-88
2023/01/14 08:55:38;;;;;;;22.25;4.15;;;6.40;99.90;;;;;;5108434;28;20376;-88
2023/01/14 08:58:07;;;;;;;14.70;4.22;;;6.40;99.90;;;;;;5104047;28;20171;-88
2023/01/14 09:00:33;;;;;;;27.15;6.65;;;6.40;99.90;;;;;;5113973;28;20054;-89
2023/01/14 09:02:59;;;;;;;27.05;6.20;;;6.40;99.90;;;;;;5113039;28;20035;-88
2023/01/14 09:05:25;;;;;;;23.40;5.68;;;6.50;99.90;;;;;;5113698;28;20042;-89
2023/01/14 09:18:56;;;;;;;25.13;6.80;;;6.50;99.90;;;;;;5106606;28;20039;-95
2023/01/14 09:21:23;;;;;;;16.27;4.68;;;6.50;99.90;;;;;;5094792;28;20051;-94
2023/01/14 09:23:50;;;;;;;20.52;6.20;;;6.50;99.90;;;;;;5103704;28;20043;-95
2023/01/14 09:26:16;;;;;;;13.35;3.50;;;6.50;99.90;;;;;;5089387;28;20035;-92
2023/01/14 09:28:41;;;;;;;20.70;5.78;;;6.50;99.90;;;;;;5082750;28;20119;-94
2023/01/14 09:31:07;;;;;;;18.63;5.78;;;6.50;99.90;;;;;;5090492;28;20074;-94
2023/01/14 09:33:33;;;;;;;21.83;5.57;;;6.60;99.90;;;;;;5124771;27;20031;-95
2023/01/14 09:36:02;;;;;;;20.02;5.78;;;6.60;99.90;;;;;;5116502;27;20045;-95
2023/01/14 09:38:28;;;;;;;14.82;3.50;;;6.60;99.90;;;;;;5135117;27;20083;-95
2023/01/14 09:40:54;;;;;;;18.85;2.95;;;6.60;99.90;;;;;;5118015;27;20099;-95
2023/01/14 09:43:21;;;;;;;16.90;5.60;;;6.60;99.90;;;;;;5119055;27;20035;-95
2023/01/14 09:45:50;;;;;;;17.45;5.35;;;6.60;99.90;;;;;;5119378;27;20197;-93
2023/01/14 09:48:21;;;;;;;17.38;5.45;;;6.70;99.90;;;;;;5122568;27;20019;-94
2023/01/14 09:51:24;;;;;;;11.95;3.17;;;6.70;99.90;;;;;;5113968;27;20121;-92
2023/01/14 09:54:08;;;;;;;12.15;3.03;;;6.70;99.90;;;;;;5122634;27;20049;-91
2023/01/14 09:56:40;;;;;;;16.08;4.55;;;6.70;99.90;;;;;;5123448;27;20035;-92
2023/01/14 09:59:37;;;;;;;15.98;5.20;;;6.70;99.90;;;;;;5108434;27;20051;-91
2023/01/14 10:02:32;;;;;;;12.82;3.03;;;6.70;99.90;;;;;;5098782;27;20035;-89
2023/01/14 10:05:19;;;;;;;12.77;4.40;;;6.80;99.90;;;;;;5128415;27;20039;-84
2023/01/14 10:07:45;;;;;;;13.60;4.50;;;6.70;99.90;;;;;;5116416;27;20706;-89
2023/01/14 10:10:37;;;;;;;14.75;4.30;;;6.80;99.90;;;;;;5142953;27;20039;-89
2023/01/14 10:13:16;;;;;;;16.38;4.68;;;6.80;99.90;;;;;;5113658;27;20115;-89
2023/01/14 10:15:59;;;;;;;13.35;4.20;;;6.80;99.90;;;;;;5111146;27;20104;-88
2023/01/14 10:18:35;;;;;;;13.82;4.85;;;6.90;99.90;;;;;;5147020;27;20043;-89
2023/01/14 10:21:04;;;;;;;12.30;4.40;;;6.90;99.90;;;;;;5099415;27;20036;-89
2023/01/14 10:23:39;;;;;;;13.60;4.30;;;6.90;99.90;;;;;;5098906;27;20319;-89
2023/01/14 10:26:15;;;;;;;12.45;4.40;;;6.90;99.90;;;;;;5114993;27;20547;-90
2023/01/14 10:28:44;;;;;;;11.57;4.57;;;6.90;99.90;;;;;;5098798;27;20078;-91
2023/01/14 10:31:18;;;;;;;13.88;4.53;;;6.90;99.90;;;;;;5115335;27;20047;-88
2023/01/14 10:33:45;;;;;;;14.80;5.53;;;7.00;99.90;;;;;;5102003;27;20035;-89
2023/01/14 10:36:23;;;;;;;13.82;5.15;;;7.00;99.90;;;;;;5099832;27;20047;-85
2023/01/14 10:38:49;;;;;;;15.00;5.00;;;7.00;99.90;;;;;;5098984;27;20043;-89
2023/01/14 10:41:16;;;;;;;8.43;3.28;;;7.00;99.90;;;;;;5114714;27;20043;-91
2023/01/14 10:43:45;;;;;;;13.23;5.13;;;7.10;99.90;;;;;;5129513;27;20688;-90
2023/01/14 10:46:17;;;;;;;9.27;3.05;;;7.10;99.90;;;;;;5113775;27;20047;-87
2023/01/14 10:49:10;;;;;;;11.85;5.47;;;7.10;99.90;;;;;;5112913;27;20130;-87
2023/01/14 10:51:38;;;;;;;9.57;4.45;;;7.10;99.90;;;;;;5132062;27;20092;-87
2023/01/14 10:54:34;;;;;;;9.70;4.35;;;7.10;99.90;;;;;;5136197;27;20512;-86
2023/01/14 10:57:14;;;;;;;11.73;5.05;;;7.20;99.90;;;;;;5095484;27;20047;-86
2023/01/14 10:59:49;;;;;;;12.38;5.00;;;7.20;99.90;;;;;;5114773;27;20043;-86
2023/01/14 11:02:36;;;;;;;13.23;4.80;;;7.30;99.90;;;;;;5115210;27;20043;-87
2023/01/14 11:05:05;;;;;;;11.82;4.78;;;7.30;99.90;;;;;;5087268;28;20036;-87
2023/01/14 11:07:40;;;;;;;11.20;5.05;;;7.30;99.90;;;;;;5115709;27;20047;-87
2023/01/14 11:10:29;;;;;;;6.10;2.30;;;7.40;99.90;;;;;;5113554;27;20127;-86
2023/01/14 11:13:31;;;;;;;11.52;4.40;;;7.40;99.90;;;;;;5095772;28;20046;-91
2023/01/14 11:15:58;;;;;;;9.95;4.35;;;7.40;99.90;;;;;;5143599;27;20082;-93
2023/01/14 11:18:34;;;;;;;11.85;4.53;;;7.40;99.90;;;;;;5101753;28;20092;-96
2023/01/14 11:21:11;;;;;;;12.82;3.80;;;7.40;99.90;;;;;;5129667;27;20077;-91
2023/01/14 11:23:43;;;;;;;8.43;3.97;;;7.50;99.90;;;;;;5095086;27;20488;-90
2023/01/14 11:26:27;;;;;;;9.23;3.90;;;7.50;99.90;;;;;;5093382;27;20043;-86
2023/01/14 11:29:12;;;;;;;10.10;3.97;;;7.50;99.90;;;;;;5115403;27;20091;-89
2023/01/14 11:31:39;;;;;;;9.57;3.65;;;7.50;99.90;;;;;;5120498;27;20035;-91
2023/01/14 11:34:31;;;;;;;11.52;3.70;;;7.50;99.90;;;;;;5107460;27;20757;-88
2023/01/14 11:37:09;;;;;;;9.52;3.65;;;7.50;99.90;;;;;;5126490;27;20046;-90
2023/01/14 11:39:38;;;;;;;8.90;3.38;;;7.50;99.90;;;;;;5120773;27;20051;-90
2023/01/14 11:42:25;;;;;;;7.55;2.92;;;7.50;99.90;;;;;;5138042;27;20091;-92
2023/01/14 11:45:03;;;;;;;8.63;3.00;;;7.60;99.90;;;;;;5100405;27;20399;-89
2023/01/14 11:47:30;;;;;;;8.55;3.15;;;7.60;99.90;;;;;;5114620;27;20039;-87
2023/01/14 11:50:21;;;;;;;9.13;3.30;;;7.60;99.90;;;;;;5133128;27;20062;-85
2023/01/14 11:53:15;;;;;;;10.63;3.40;;;7.60;99.90;;;;;;5130347;27;20035;-83
2023/01/14 11:55:41;;;;;;;7.97;2.85;;;7.60;99.90;;;;;;5116323;27;20038;-83
2023/01/14 11:58:20;;;;;;;7.35;2.72;;;7.60;99.90;;;;;;5113452;27;20035;-84
2023/01/14 12:00:56;;;;;;;6.68;1.98;;;7.60;99.90;;;;;;5132097;27;20077;-86
2023/01/14 12:03:35;;;;;;;10.50;3.00;;;7.70;99.90;;;;;;5131839;27;20513;-84
2023/01/14 12:06:12;;;;;;;8.95;3.20;;;7.70;99.90;;;;;;5138626;27;20050;-84
2023/01/14 12:08:39;;;;;;;9.15;3.38;;;7.70;99.90;;;;;;5106466;28;20035;-84
2023/01/14 12:11:11;;;;;;;8.68;3.17;;;7.70;99.90;;;;;;5116252;27;20035;-85
2023/01/14 12:16:49;;;;;;;7.63;2.95;;;7.80;99.90;;;;;;5125963;27;20046;-84
2023/01/14 12:19:23;;;;;;;9.02;3.03;;;7.80;99.90;;;;;;5109418;27;20483;-85
2023/01/14 12:21:58;;;;;;;5.53;1.70;;;7.80;99.90;;;;;;5080539;27;20039;-84
2023/01/14 12:24:41;;;;;;;10.48;3.17;;;7.90;99.90;;;;;;5122242;27;20537;-83
2023/01/14 12:27:44;;;;;;;7.10;3.25;;;7.90;99.90;;;;;;5114977;27;20400;-86
2023/01/14 12:30:13;;;;;;;9.00;2.97;;;7.90;99.90;;;;;;5112422;27;20452;-84
2023/01/14 12:32:41;;;;;;;7.20;3.00;;;8.00;99.90;;;;;;5085713;27;20039;-84
2023/01/14 12:35:11;;;;;;;8.80;3.22;;;8.00;99.90;;;;;;5110064;27;20039;-83
2023/01/14 12:37:55;;;;;;;8.63;2.95;;;8.00;99.90;;;;;;5118024;27;20051;-84
2023/01/14 12:46:21;;;;;;;7.43;2.65;;;8.10;99.90;;;;;;5126669;27;20051;-84
2023/01/14 12:48:47;;;;;;;7.20;2.40;;;8.20;99.90;;;;;;5078253;27;20410;-84
2023/01/14 12:51:24;;;;;;;6.00;2.38;;;8.20;99.90;;;;;;5108227;27;20035;-84
2023/01/14 12:54:02;;;;;;;5.82;2.20;;;8.20;99.90;;;;;;5109735;28;20051;-84
2023/01/14 12:56:34;;;;;;;6.45;2.50;;;8.30;99.90;;;;;;5141724;27;20089;-85
2023/01/14 12:59:18;;;;;;;6.95;2.45;;;8.40;99.90;;;;;;5096666;28;20046;-85
2023/01/14 13:01:52;;;;;;;7.05;2.20;;;8.40;99.90;;;;;;5106489;28;20089;-84
2023/01/14 13:04:22;;;;;;;6.18;1.95;;;8.50;99.90;;;;;;5117846;27;20138;-84
2023/01/14 13:06:57;;;;;;;6.03;1.70;;;8.50;99.90;;;;;;5109520;28;20138;-82
2023/01/14 13:09:28;;;;;;;4.55;2.00;;;8.50;99.90;;;;;;5145024;27;20039;-83
2023/01/14 13:11:55;;;;;;;5.68;1.70;;;8.60;99.90;;;;;;5116614;28;20039;-84
2023/01/14 13:14:38;;;;;;;4.30;1.77;;;8.70;99.90;;;;;;5111196;28;20114;-83
2023/01/14 13:17:18;;;;;;;5.72;1.95;;;8.70;99.90;;;;;;5108422;28;20078;-83
2023/01/14 13:19:51;;;;;;;5.53;1.75;;;8.80;99.90;;;;;;5130537;28;20105;-83
2023/01/14 13:22:40;;;;;;;6.28;1.85;;;8.80;99.90;;;;;;5129087;28;20456;-83
2023/01/14 13:25:05;;;;;;;4.88;1.70;;;8.90;99.90;;;;;;5127703;28;20047;-84
2023/01/14 13:27:35;;;;;;;5.53;1.75;;;8.90;99.90;;;;;;5130228;28;20537;-83
2023/01/14 13:30:19;;;;;;;4.55;1.60;;;9.00;99.90;;;;;;5130148;28;20099;-84
2023/01/14 13:33:00;;;;;;;5.65;1.80;;;9.00;99.90;;;;;;5098996;28;20479;-83
2023/01/14 13:35:33;;;;;;;5.60;1.80;;;9.00;99.90;;;;;;5104473;28;20031;-84
2023/01/14 13:38:26;;;;;;;5.07;1.70;;;9.10;99.90;;;;;;5109934;28;20039;-82
2023/01/14 13:41:06;;;;;;;5.13;2.10;;;9.10;99.90;;;;;;5144588;27;20160;-83
2023/01/14 13:43:35;;;;;;;4.47;2.20;;;9.10;99.90;;;;;;5112141;28;20043;-83
2023/01/14 13:46:04;;;;;;;6.35;2.17;;;9.20;99.90;;;;;;5123429;28;20103;-85